KCOD/COD METAR and TAF weather

Enter ICAO airport designator
Station Type Date Time Source
KCOD METAR 2020/08/15 09:56 UTC NOAA

KCOD 150956Z AUTO 00000KT 10SM CLR 13/05 A3022 RMK AO2 SLP195 T01280050


Station Type Date Time Source
KCOD Decoded METAR 2020/08/15 09:56 UTC NOAA

Cody, WY, United States (KCOD) 44-31N 109-01W 1553M
Aug 15, 2020 - 05:56 AM EDT / 2020.08.15 0956 UTC
Wind: Calm:0
Visibility: 10 mile(s):0
Sky conditions: clear
Temperature: 55.0 F (12.8 C)
Dew Point: 41.0 F (5.0 C)
Relative Humidity: 59%
Pressure (altimeter): 30.22 in. Hg (1023 hPa)
ob: KCOD 150956Z AUTO 00000KT 10SM CLR 13/05 A3022 RMK AO2 SLP195 T01280050
cycle: 10

Station Type Date Time Source
KCOD TAF 2020/08/15 06:33 UTC NOAA

TAF KCOD 150530Z 1506/1606 VRB06KT P6SM SKC
FM151600 03007KT P6SM SKC
FM160300 VRB05KT P6SM SKC

Example: see airport list